F/V Oiseau D Tempete — FHGL — position and weather

sailwx.info

Track history (hours):
 
Tides and Currents Weather Stations Pressure Air Temp Water Temp Dewpoint Dewpoint Depression Visibility Wind Speed Wind Dir Waves Ship Positions

F/V Oiseau D Tempete

Last reported at 2017-Nov-19 23:28 UTC. Time now 2017-Nov-22 18:38 UTC.
Position N 47°02' W 002°18'.

Length 15 m; draft 2 m.

Type: Fishing. MMSI: 227808000.

Date/timePositionNaut miles runAvg speedWind from/ knotsBaromVisibWave heightAir tempDewpointWater temp
2017-Nov-19 23:28N 47°02' W 002°18'0 0.0
2017-Nov-19 20:00N 47°02' W 002°18'0 0.0
2017-Nov-19 19:21N 47°02' W 002°18'0 0.0
2017-Nov-19 19:00N 47°02' W 002°18'0 0.0
2017-Nov-19 07:59N 47°02' W 002°18'0 0.0
2017-Nov-19 07:25N 47°02' W 002°18'0 0.0
2017-Nov-19 06:56N 47°02' W 002°18'0 0.0
2017-Nov-19 06:08N 47°02' W 002°18'0 0.0
2017-Nov-19 06:00N 47°02' W 002°18'0 0.0
2017-Nov-19 05:30N 47°02' W 002°18'0 0.0
2017-Nov-19 03:14N 47°02' W 002°18'0 0.0
2017-Nov-19 02:23N 47°02' W 002°18'0 0.0
2017-Nov-19 01:27N 47°02' W 002°18'0 0.0
2017-Nov-19 00:14N 47°02' W 002°18'0 0.0
2017-Nov-19 00:00N 47°02' W 002°18'0 0.0
2017-Nov-18 23:29N 47°02' W 002°18'0 0.0
2017-Nov-18 22:56N 47°02' W 002°18'0 0.0
2017-Nov-18 22:20N 47°02' W 002°18'0 0.0
2017-Nov-18 21:56N 47°02' W 002°18'0 0.0
2017-Nov-18 21:24N 47°02' W 002°18'0 0.0
2017-Nov-18 20:06N 47°02' W 002°18'0 0.0
2017-Nov-18 20:00N 47°02' W 002°18'0 0.0
2017-Nov-18 19:09N 47°02' W 002°18'0 0.0
2017-Nov-18 18:57N 47°02' W 002°18'0 0.0
2017-Nov-18 18:29N 47°02' W 002°18'0 0.0
2017-Nov-18 17:27N 47°02' W 002°18'0 0.0
2017-Nov-18 16:39N 47°02' W 002°18'0 0.0
2017-Nov-18 15:12N 47°02' W 002°18'0 0.0
2017-Nov-18 14:59N 47°02' W 002°18'0 0.0
2017-Nov-18 14:30N 47°02' W 002°18'0 0.0
2017-Nov-18 14:00N 47°02' W 002°18'0 0.0
2017-Nov-18 12:57N 47°02' W 002°18'0 0.0
2017-Nov-18 12:19N 47°02' W 002°18'0 0.0
2017-Nov-18 11:53N 47°02' W 002°18'0 0.0
2017-Nov-18 10:33N 47°02' W 002°18'0 0.0
2017-Nov-18 10:12N 47°02' W 002°18'0 0.0
2017-Nov-18 09:50N 47°02' W 002°18'0 0.0
2017-Nov-18 09:30N 47°02' W 002°18'0 0.0
2017-Nov-18 08:58N 47°02' W 002°18'0 0.0
2017-Nov-18 08:30N 47°02' W 002°18'0 0.0
2017-Nov-18 07:56N 47°02' W 002°18'0 0.0
2017-Nov-18 07:26N 47°02' W 002°18'0 0.0
2017-Nov-18 06:45N 47°02' W 002°18'0 0.0
2017-Nov-18 05:19N 47°02' W 002°18'0 0.0
2017-Nov-18 04:25N 47°02' W 002°18'0 0.0
2017-Nov-18 01:35N 47°02' W 002°18'0 0.0
2017-Nov-18 00:40N 47°02' W 002°18'0 0.0
2017-Nov-18 00:28N 47°02' W 002°18'0 0.0
2017-Nov-17 23:18N 47°02' W 002°18'0 0.0
2017-Nov-17 21:24N 47°02' W 002°18'0 0.0
2017-Nov-17 20:07N 47°02' W 002°18'0 0.0
2017-Nov-17 19:52N 47°02' W 002°18'0 0.0
2017-Nov-17 19:28N 47°02' W 002°18'0 0.0
2017-Nov-17 13:32N 47°02' W 002°18'46 8.0
2017-Nov-17 07:45N 46°15' W 002°11'2 0.4
2017-Nov-17 02:40N 46°14' W 002°11'0 0.6
2017-Nov-17 02:09N 46°14' W 002°11'0 0.0
2017-Nov-16 18:27N 46°14' W 002°12'1 0.1
2017-Nov-16 10:04N 46°13' W 002°11'0 1.9
2017-Nov-16 09:57N 46°13' W 002°11'1 0.4
2017-Nov-16 08:09N 46°13' W 002°11'1 1.0
2017-Nov-16 07:26N 46°12' W 002°10'1 0.5
2017-Nov-16 05:23N 46°13' W 002°12'2 0.1
2017-Nov-15 10:55N 46°14' W 002°09'1 1.9
2017-Nov-15 10:26N 46°14' W 002°10'2 0.9
2017-Nov-15 08:28N 46°13' W 002°11'0 0.4
2017-Nov-15 07:22N 46°12' W 002°11'0 0.7
2017-Nov-15 06:45N 46°13' W 002°11'  
2017-Nov-11 04:18N 47°01' W 002°18'0 0.0
2017-Nov-11 02:48N 47°01' W 002°18'0 0.0
2017-Nov-10 23:15N 47°01' W 002°18'0 0.0
2017-Nov-10 22:50N 47°01' W 002°18'0 0.0
2017-Nov-10 22:29N 47°01' W 002°18'0 0.0
2017-Nov-10 09:41N 47°01' W 002°18'0 0.0
2017-Nov-10 09:28N 47°01' W 002°18'0 0.0
2017-Nov-10 08:58N 47°01' W 002°18'0 0.0
2017-Nov-10 08:30N 47°01' W 002°18'  
Track history (hours):
 
Tides and Currents Weather Stations Pressure Air Temp Water Temp Dewpoint Dewpoint Depression Visibility Wind Speed Wind Dir Waves Ship Positions

F/V Oiseau D Tempete

Last reported at 2017-Nov-19 23:28 UTC. Time now 2017-Nov-22 18:38 UTC.
Position N 47°02' W 002°18'.

Length 15 m; draft 2 m.

Type: Fishing. MMSI: 227808000.

Date/timePositionNaut miles runAvg speedWind from/ knotsBaromVisibWave heightAir tempDewpointWater temp
2017-Nov-19 23:28N 47°02' W 002°18'0 0.0
2017-Nov-19 20:00N 47°02' W 002°18'0 0.0
2017-Nov-19 19:21N 47°02' W 002°18'0 0.0
2017-Nov-19 19:00N 47°02' W 002°18'0 0.0
2017-Nov-19 07:59N 47°02' W 002°18'0 0.0
2017-Nov-19 07:25N 47°02' W 002°18'0 0.0
2017-Nov-19 06:56N 47°02' W 002°18'0 0.0
2017-Nov-19 06:08N 47°02' W 002°18'0 0.0
2017-Nov-19 06:00N 47°02' W 002°18'0 0.0
2017-Nov-19 05:30N 47°02' W 002°18'0 0.0
2017-Nov-19 03:14N 47°02' W 002°18'0 0.0
2017-Nov-19 02:23N 47°02' W 002°18'0 0.0
2017-Nov-19 01:27N 47°02' W 002°18'0 0.0
2017-Nov-19 00:14N 47°02' W 002°18'0 0.0
2017-Nov-19 00:00N 47°02' W 002°18'0 0.0
2017-Nov-18 23:29N 47°02' W 002°18'0 0.0
2017-Nov-18 22:56N 47°02' W 002°18'0 0.0
2017-Nov-18 22:20N 47°02' W 002°18'0 0.0
2017-Nov-18 21:56N 47°02' W 002°18'0 0.0
2017-Nov-18 21:24N 47°02' W 002°18'0 0.0
2017-Nov-18 20:06N 47°02' W 002°18'0 0.0
2017-Nov-18 20:00N 47°02' W 002°18'0 0.0
2017-Nov-18 19:09N 47°02' W 002°18'0 0.0
2017-Nov-18 18:57N 47°02' W 002°18'0 0.0
2017-Nov-18 18:29N 47°02' W 002°18'0 0.0
2017-Nov-18 17:27N 47°02' W 002°18'0 0.0
2017-Nov-18 16:39N 47°02' W 002°18'0 0.0
2017-Nov-18 15:12N 47°02' W 002°18'0 0.0
2017-Nov-18 14:59N 47°02' W 002°18'0 0.0
2017-Nov-18 14:30N 47°02' W 002°18'0 0.0
2017-Nov-18 14:00N 47°02' W 002°18'0 0.0
2017-Nov-18 12:57N 47°02' W 002°18'0 0.0
2017-Nov-18 12:19N 47°02' W 002°18'0 0.0
2017-Nov-18 11:53N 47°02' W 002°18'0 0.0
2017-Nov-18 10:33N 47°02' W 002°18'0 0.0
2017-Nov-18 10:12N 47°02' W 002°18'0 0.0
2017-Nov-18 09:50N 47°02' W 002°18'0 0.0
2017-Nov-18 09:30N 47°02' W 002°18'0 0.0
2017-Nov-18 08:58N 47°02' W 002°18'0 0.0
2017-Nov-18 08:30N 47°02' W 002°18'0 0.0
2017-Nov-18 07:56N 47°02' W 002°18'0 0.0
2017-Nov-18 07:26N 47°02' W 002°18'0 0.0
2017-Nov-18 06:45N 47°02' W 002°18'0 0.0
2017-Nov-18 05:19N 47°02' W 002°18'0 0.0
2017-Nov-18 04:25N 47°02' W 002°18'0 0.0
2017-Nov-18 01:35N 47°02' W 002°18'0 0.0
2017-Nov-18 00:40N 47°02' W 002°18'0 0.0
2017-Nov-18 00:28N 47°02' W 002°18'0 0.0
2017-Nov-17 23:18N 47°02' W 002°18'0 0.0
2017-Nov-17 21:24N 47°02' W 002°18'0 0.0
2017-Nov-17 20:07N 47°02' W 002°18'0 0.0
2017-Nov-17 19:52N 47°02' W 002°18'0 0.0
2017-Nov-17 19:28N 47°02' W 002°18'0 0.0
2017-Nov-17 13:32N 47°02' W 002°18'46 8.0
2017-Nov-17 07:45N 46°15' W 002°11'2 0.4
2017-Nov-17 02:40N 46°14' W 002°11'0 0.6
2017-Nov-17 02:09N 46°14' W 002°11'0 0.0
2017-Nov-16 18:27N 46°14' W 002°12'1 0.1
2017-Nov-16 10:04N 46°13' W 002°11'0 1.9
2017-Nov-16 09:57N 46°13' W 002°11'1 0.4
2017-Nov-16 08:09N 46°13' W 002°11'1 1.0
2017-Nov-16 07:26N 46°12' W 002°10'1 0.5
2017-Nov-16 05:23N 46°13' W 002°12'2 0.1
2017-Nov-15 10:55N 46°14' W 002°09'1 1.9
2017-Nov-15 10:26N 46°14' W 002°10'2 0.9
2017-Nov-15 08:28N 46°13' W 002°11'0 0.4
2017-Nov-15 07:22N 46°12' W 002°11'0 0.7
2017-Nov-15 06:45N 46°13' W 002°11'  
2017-Nov-11 04:18N 47°01' W 002°18'0 0.0
2017-Nov-11 02:48N 47°01' W 002°18'0 0.0
2017-Nov-10 23:15N 47°01' W 002°18'0 0.0
2017-Nov-10 22:50N 47°01' W 002°18'0 0.0
2017-Nov-10 22:29N 47°01' W 002°18'0 0.0
2017-Nov-10 09:41N 47°01' W 002°18'0 0.0
2017-Nov-10 09:28N 47°01' W 002°18'0 0.0
2017-Nov-10 08:58N 47°01' W 002°18'0 0.0
2017-Nov-10 08:30N 47°01' W 002°18'  

Dump ship's entire track history